Frazeysburg, Ohio
Current Conditions -  °F | °C
As of 5:53 AM on Friday 31 Oct 2014 (Local Time) from KZZV Reporting Station
Overcast Overcast  
Wind Chill: 42°   Ceiling: 7000
Heat Index: 42°   Visibility: 10mi
Dew Point: 35°   Wind: 0mph
Humidity: 76%   Direction: NA
Pressure: 29.98"   Gusts: NA
Location:  40.12°N, 82.12°W
Report Text: KZZV 310953Z AUTO 00000KT 10SM SCT047 BKN070 OVC080 06/02 A2998 RMK AO2 SLP155 T00560017
Loading
Personal Weather Stations






























Interactive Weather Map
Tropical Storm Tracking
New forecast layout! Learn more

10-Day Weather Forecast

Advertisements
Track Severe Weather on mobile